sensor_id;sensor_type;location;lat;lon;timestamp;P1;durP1;ratioP1;P2;durP2;ratioP2
10904;SDS011;5505;51.450;9.254;2022-08-21T00:00:08;5.53;;;3.47;;
10904;SDS011;5505;51.450;9.254;2022-08-21T00:02:58;4.40;;;3.53;;
10904;SDS011;5505;51.450;9.254;2022-08-21T00:05:50;3.77;;;3.20;;
10904;SDS011;5505;51.450;9.254;2022-08-21T00:08:38;3.80;;;3.33;;
10904;SDS011;5505;51.450;9.254;2022-08-21T00:11:25;3.67;;;3.20;;
10904;SDS011;5505;51.450;9.254;2022-08-21T00:14:12;4.77;;;3.40;;
10904;SDS011;5505;51.450;9.254;2022-08-21T00:17:01;5.00;;;3.37;;
10904;SDS011;5505;51.450;9.254;2022-08-21T00:19:49;6.13;;;3.37;;
10904;SDS011;5505;51.450;9.254;2022-08-21T00:22:35;4.47;;;3.20;;
10904;SDS011;5505;51.450;9.254;2022-08-21T00:25:23;5.73;;;3.33;;
10904;SDS011;5505;51.450;9.254;2022-08-21T00:28:10;4.30;;;2.97;;
10904;SDS011;5505;51.450;9.254;2022-08-21T00:30:57;4.83;;;3.30;;
10904;SDS011;5505;51.450;9.254;2022-08-21T00:33:46;5.57;;;3.43;;
10904;SDS011;5505;51.450;9.254;2022-08-21T00:36:33;3.70;;;3.40;;
10904;SDS011;5505;51.450;9.254;2022-08-21T00:39:20;4.87;;;3.33;;
10904;SDS011;5505;51.450;9.254;2022-08-21T00:42:07;4.40;;;3.50;;
10904;SDS011;5505;51.450;9.254;2022-08-21T00:44:54;5.53;;;3.60;;
10904;SDS011;5505;51.450;9.254;2022-08-21T00:47:41;5.30;;;4.03;;
10904;SDS011;5505;51.450;9.254;2022-08-21T00:50:30;6.60;;;3.97;;
10904;SDS011;5505;51.450;9.254;2022-08-21T00:53:21;3.93;;;3.53;;
10904;SDS011;5505;51.450;9.254;2022-08-21T00:56:10;4.23;;;3.37;;
10904;SDS011;5505;51.450;9.254;2022-08-21T00:58:58;4.87;;;3.00;;
10904;SDS011;5505;51.450;9.254;2022-08-21T01:01:46;4.03;;;3.40;;
10904;SDS011;5505;51.450;9.254;2022-08-21T01:04:34;5.97;;;3.60;;
10904;SDS011;5505;51.450;9.254;2022-08-21T01:07:22;6.07;;;4.60;;
10904;SDS011;5505;51.450;9.254;2022-08-21T01:10:10;6.20;;;3.93;;
10904;SDS011;5505;51.450;9.254;2022-08-21T01:12:57;5.03;;;4.00;;
10904;SDS011;5505;51.450;9.254;2022-08-21T01:15:45;6.07;;;4.93;;
10904;SDS011;5505;51.450;9.254;2022-08-21T01:18:34;7.00;;;4.43;;
10904;SDS011;5505;51.450;9.254;2022-08-21T01:21:24;6.30;;;5.00;;
10904;SDS011;5505;51.450;9.254;2022-08-21T01:24:13;6.87;;;4.70;;
10904;SDS011;5505;51.450;9.254;2022-08-21T01:27:00;6.57;;;5.37;;
10904;SDS011;5505;51.450;9.254;2022-08-21T01:29:50;5.43;;;4.83;;
10904;SDS011;5505;51.450;9.254;2022-08-21T01:32:40;6.53;;;5.53;;
10904;SDS011;5505;51.450;9.254;2022-08-21T01:35:27;5.40;;;4.90;;
10904;SDS011;5505;51.450;9.254;2022-08-21T01:38:16;5.60;;;5.10;;
10904;SDS011;5505;51.450;9.254;2022-08-21T01:41:03;5.80;;;4.97;;
10904;SDS011;5505;51.450;9.254;2022-08-21T01:43:50;5.57;;;5.00;;
10904;SDS011;5505;51.450;9.254;2022-08-21T01:46:37;7.37;;;4.80;;
10904;SDS011;5505;51.450;9.254;2022-08-21T01:49:24;5.57;;;4.47;;
10904;SDS011;5505;51.450;9.254;2022-08-21T01:52:11;7.57;;;4.30;;
10904;SDS011;5505;51.450;9.254;2022-08-21T01:54:59;4.53;;;3.90;;
10904;SDS011;5505;51.450;9.254;2022-08-21T01:57:46;4.90;;;4.00;;
10904;SDS011;5505;51.450;9.254;2022-08-21T02:00:33;4.57;;;4.10;;
10904;SDS011;5505;51.450;9.254;2022-08-21T02:03:20;4.63;;;3.73;;
10904;SDS011;5505;51.450;9.254;2022-08-21T02:06:07;5.37;;;3.97;;
10904;SDS011;5505;51.450;9.254;2022-08-21T02:08:58;4.53;;;4.13;;
10904;SDS011;5505;51.450;9.254;2022-08-21T02:11:46;5.33;;;4.17;;
10904;SDS011;5505;51.450;9.254;2022-08-21T02:14:33;6.40;;;4.13;;
10904;SDS011;5505;51.450;9.254;2022-08-21T02:17:20;4.67;;;3.83;;
10904;SDS011;5505;51.450;9.254;2022-08-21T02:20:08;5.60;;;4.50;;
10904;SDS011;5505;51.450;9.254;2022-08-21T02:22:57;5.50;;;4.20;;
10904;SDS011;5505;51.450;9.254;2022-08-21T02:25:45;4.90;;;4.27;;
10904;SDS011;5505;51.450;9.254;2022-08-21T02:28:33;6.87;;;4.80;;
10904;SDS011;5505;51.450;9.254;2022-08-21T02:31:21;4.10;;;3.70;;
10904;SDS011;5505;51.450;9.254;2022-08-21T02:34:07;4.63;;;3.53;;
10904;SDS011;5505;51.450;9.254;2022-08-21T02:36:54;4.73;;;4.27;;
10904;SDS011;5505;51.450;9.254;2022-08-21T02:39:41;5.23;;;4.40;;
10904;SDS011;5505;51.450;9.254;2022-08-21T02:42:28;5.00;;;4.53;;
10904;SDS011;5505;51.450;9.254;2022-08-21T02:45:16;6.30;;;5.00;;
10904;SDS011;5505;51.450;9.254;2022-08-21T02:48:05;5.43;;;5.03;;
10904;SDS011;5505;51.450;9.254;2022-08-21T02:50:54;6.30;;;5.70;;
10904;SDS011;5505;51.450;9.254;2022-08-21T02:53:43;6.10;;;5.23;;
10904;SDS011;5505;51.450;9.254;2022-08-21T02:56:31;7.57;;;5.93;;
10904;SDS011;5505;51.450;9.254;2022-08-21T02:59:18;6.43;;;5.27;;
10904;SDS011;5505;51.450;9.254;2022-08-21T03:02:06;5.97;;;5.10;;
10904;SDS011;5505;51.450;9.254;2022-08-21T03:04:53;7.73;;;5.50;;
10904;SDS011;5505;51.450;9.254;2022-08-21T03:07:39;7.53;;;5.60;;
10904;SDS011;5505;51.450;9.254;2022-08-21T03:10:27;6.03;;;5.43;;
10904;SDS011;5505;51.450;9.254;2022-08-21T03:13:16;8.07;;;5.73;;
10904;SDS011;5505;51.450;9.254;2022-08-21T03:16:05;7.93;;;5.67;;
10904;SDS011;5505;51.450;9.254;2022-08-21T03:18:54;6.97;;;6.33;;
10904;SDS011;5505;51.450;9.254;2022-08-21T03:21:41;10.37;;;6.33;;
10904;SDS011;5505;51.450;9.254;2022-08-21T03:24:27;6.87;;;6.20;;
10904;SDS011;5505;51.450;9.254;2022-08-21T03:27:14;8.50;;;6.27;;
10904;SDS011;5505;51.450;9.254;2022-08-21T03:30:02;6.77;;;6.17;;
10904;SDS011;5505;51.450;9.254;2022-08-21T03:32:50;7.17;;;6.30;;
10904;SDS011;5505;51.450;9.254;2022-08-21T03:35:39;6.80;;;5.83;;
10904;SDS011;5505;51.450;9.254;2022-08-21T03:38:26;5.70;;;5.10;;
10904;SDS011;5505;51.450;9.254;2022-08-21T03:41:15;5.53;;;4.93;;
10904;SDS011;5505;51.450;9.254;2022-08-21T03:44:02;5.73;;;5.23;;
10904;SDS011;5505;51.450;9.254;2022-08-21T03:46:49;7.33;;;5.37;;
10904;SDS011;5505;51.450;9.254;2022-08-21T03:49:36;6.83;;;5.27;;
10904;SDS011;5505;51.450;9.254;2022-08-21T03:52:24;7.10;;;5.43;;
10904;SDS011;5505;51.450;9.254;2022-08-21T03:55:11;6.87;;;5.87;;
10904;SDS011;5505;51.450;9.254;2022-08-21T03:57:58;6.10;;;5.50;;
10904;SDS011;5505;51.450;9.254;2022-08-21T04:00:45;6.27;;;5.50;;
10904;SDS011;5505;51.450;9.254;2022-08-21T04:03:33;6.07;;;5.20;;
10904;SDS011;5505;51.450;9.254;2022-08-21T04:06:21;5.80;;;5.20;;
10904;SDS011;5505;51.450;9.254;2022-08-21T04:09:10;5.73;;;4.90;;
10904;SDS011;5505;51.450;9.254;2022-08-21T04:11:56;9.70;;;5.43;;
10904;SDS011;5505;51.450;9.254;2022-08-21T04:14:45;6.37;;;5.20;;
10904;SDS011;5505;51.450;9.254;2022-08-21T04:17:32;5.87;;;5.40;;
10904;SDS011;5505;51.450;9.254;2022-08-21T04:20:19;7.43;;;5.67;;
10904;SDS011;5505;51.450;9.254;2022-08-21T04:23:07;5.60;;;5.10;;
10904;SDS011;5505;51.450;9.254;2022-08-21T04:25:56;5.93;;;5.33;;
10904;SDS011;5505;51.450;9.254;2022-08-21T04:28:43;8.30;;;5.63;;
10904;SDS011;5505;51.450;9.254;2022-08-21T04:31:30;5.97;;;5.03;;
10904;SDS011;5505;51.450;9.254;2022-08-21T04:34:16;5.60;;;5.10;;
10904;SDS011;5505;51.450;9.254;2022-08-21T04:37:03;8.00;;;5.63;;
10904;SDS011;5505;51.450;9.254;2022-08-21T04:39:50;7.17;;;5.10;;
10904;SDS011;5505;51.450;9.254;2022-08-21T04:42:42;6.20;;;5.70;;
10904;SDS011;5505;51.450;9.254;2022-08-21T04:45:31;7.40;;;5.40;;
10904;SDS011;5505;51.450;9.254;2022-08-21T04:48:20;6.10;;;5.20;;
10904;SDS011;5505;51.450;9.254;2022-08-21T04:51:09;9.30;;;6.37;;
10904;SDS011;5505;51.450;9.254;2022-08-21T04:54:02;5.93;;;5.00;;
10904;SDS011;5505;51.450;9.254;2022-08-21T04:56:56;6.47;;;5.93;;
10904;SDS011;5505;51.450;9.254;2022-08-21T04:59:49;7.10;;;6.40;;
10904;SDS011;5505;51.450;9.254;2022-08-21T05:02:37;6.30;;;5.53;;
10904;SDS011;5505;51.450;9.254;2022-08-21T05:05:25;6.50;;;5.90;;
10904;SDS011;5505;51.450;9.254;2022-08-21T05:08:14;6.20;;;5.60;;
10904;SDS011;5505;51.450;9.254;2022-08-21T05:11:04;6.87;;;5.60;;
10904;SDS011;5505;51.450;9.254;2022-08-21T05:13:52;6.80;;;6.20;;
10904;SDS011;5505;51.450;9.254;2022-08-21T05:16:40;6.27;;;5.63;;
10904;SDS011;5505;51.450;9.254;2022-08-21T05:19:28;7.83;;;6.00;;
10904;SDS011;5505;51.450;9.254;2022-08-21T05:22:18;8.33;;;6.07;;
10904;SDS011;5505;51.450;9.254;2022-08-21T05:25:06;8.43;;;5.80;;
10904;SDS011;5505;51.450;9.254;2022-08-21T05:27:54;6.20;;;5.27;;
10904;SDS011;5505;51.450;9.254;2022-08-21T05:30:41;6.53;;;5.83;;
10904;SDS011;5505;51.450;9.254;2022-08-21T05:33:29;7.30;;;5.63;;
10904;SDS011;5505;51.450;9.254;2022-08-21T05:36:16;6.77;;;5.90;;
10904;SDS011;5505;51.450;9.254;2022-08-21T05:39:03;8.80;;;6.23;;
10904;SDS011;5505;51.450;9.254;2022-08-21T05:41:50;6.10;;;5.50;;
10904;SDS011;5505;51.450;9.254;2022-08-21T05:44:37;6.10;;;5.50;;
10904;SDS011;5505;51.450;9.254;2022-08-21T05:47:24;6.80;;;5.97;;
10904;SDS011;5505;51.450;9.254;2022-08-21T05:50:12;7.57;;;5.73;;
10904;SDS011;5505;51.450;9.254;2022-08-21T05:52:59;8.93;;;6.43;;
10904;SDS011;5505;51.450;9.254;2022-08-21T05:55:46;6.90;;;6.10;;
10904;SDS011;5505;51.450;9.254;2022-08-21T05:58:33;6.57;;;5.10;;
10904;SDS011;5505;51.450;9.254;2022-08-21T06:01:20;8.17;;;5.37;;
10904;SDS011;5505;51.450;9.254;2022-08-21T06:04:07;7.80;;;5.63;;
10904;SDS011;5505;51.450;9.254;2022-08-21T06:06:56;7.07;;;6.17;;
10904;SDS011;5505;51.450;9.254;2022-08-21T06:09:43;8.57;;;6.57;;
10904;SDS011;5505;51.450;9.254;2022-08-21T06:12:30;9.57;;;7.00;;
10904;SDS011;5505;51.450;9.254;2022-08-21T06:15:17;7.77;;;7.07;;
10904;SDS011;5505;51.450;9.254;2022-08-21T06:18:04;7.53;;;6.13;;
10904;SDS011;5505;51.450;9.254;2022-08-21T06:20:51;8.00;;;6.43;;
10904;SDS011;5505;51.450;9.254;2022-08-21T06:23:39;9.17;;;6.07;;
10904;SDS011;5505;51.450;9.254;2022-08-21T06:26:27;7.73;;;5.87;;
10904;SDS011;5505;51.450;9.254;2022-08-21T06:29:14;8.03;;;5.70;;
10904;SDS011;5505;51.450;9.254;2022-08-21T06:32:02;8.60;;;6.00;;
10904;SDS011;5505;51.450;9.254;2022-08-21T06:34:51;6.60;;;5.00;;
10904;SDS011;5505;51.450;9.254;2022-08-21T06:37:38;6.17;;;5.20;;
10904;SDS011;5505;51.450;9.254;2022-08-21T06:40:26;9.30;;;4.53;;
10904;SDS011;5505;51.450;9.254;2022-08-21T06:43:15;7.30;;;4.20;;
10904;SDS011;5505;51.450;9.254;2022-08-21T06:46:03;6.37;;;4.20;;
10904;SDS011;5505;51.450;9.254;2022-08-21T06:48:50;7.27;;;3.60;;
10904;SDS011;5505;51.450;9.254;2022-08-21T06:51:36;7.37;;;3.67;;
10904;SDS011;5505;51.450;9.254;2022-08-21T06:54:23;7.23;;;4.10;;
10904;SDS011;5505;51.450;9.254;2022-08-21T06:57:11;5.27;;;3.47;;
10904;SDS011;5505;51.450;9.254;2022-08-21T06:59:58;6.60;;;3.20;;
10904;SDS011;5505;51.450;9.254;2022-08-21T07:02:45;5.77;;;3.07;;
10904;SDS011;5505;51.450;9.254;2022-08-21T07:05:32;7.67;;;4.03;;
10904;SDS011;5505;51.450;9.254;2022-08-21T07:08:19;7.30;;;2.80;;
10904;SDS011;5505;51.450;9.254;2022-08-21T07:11:07;6.80;;;3.27;;
10904;SDS011;5505;51.450;9.254;2022-08-21T07:13:59;7.43;;;3.60;;
10904;SDS011;5505;51.450;9.254;2022-08-21T07:16:45;7.70;;;3.60;;
10904;SDS011;5505;51.450;9.254;2022-08-21T07:19:32;7.37;;;3.40;;
10904;SDS011;5505;51.450;9.254;2022-08-21T07:22:19;10.97;;;3.40;;
10904;SDS011;5505;51.450;9.254;2022-08-21T07:25:07;5.83;;;3.20;;
10904;SDS011;5505;51.450;9.254;2022-08-21T07:27:54;4.93;;;2.63;;
10904;SDS011;5505;51.450;9.254;2022-08-21T07:30:42;5.77;;;3.37;;
10904;SDS011;5505;51.450;9.254;2022-08-21T07:33:30;6.20;;;2.90;;
10904;SDS011;5505;51.450;9.254;2022-08-21T07:36:18;6.40;;;2.70;;
10904;SDS011;5505;51.450;9.254;2022-08-21T07:39:05;5.83;;;3.10;;
10904;SDS011;5505;51.450;9.254;2022-08-21T07:41:52;6.63;;;2.70;;
10904;SDS011;5505;51.450;9.254;2022-08-21T07:44:39;5.97;;;3.00;;
10904;SDS011;5505;51.450;9.254;2022-08-21T07:47:27;6.37;;;2.73;;
10904;SDS011;5505;51.450;9.254;2022-08-21T07:50:14;6.67;;;2.70;;
10904;SDS011;5505;51.450;9.254;2022-08-21T07:53:02;5.90;;;2.70;;
10904;SDS011;5505;51.450;9.254;2022-08-21T07:55:49;6.63;;;2.57;;
10904;SDS011;5505;51.450;9.254;2022-08-21T07:58:35;5.87;;;2.90;;
10904;SDS011;5505;51.450;9.254;2022-08-21T08:01:22;6.67;;;3.07;;
10904;SDS011;5505;51.450;9.254;2022-08-21T08:04:11;6.23;;;3.00;;
10904;SDS011;5505;51.450;9.254;2022-08-21T08:06:59;5.70;;;2.40;;
10904;SDS011;5505;51.450;9.254;2022-08-21T08:09:46;7.23;;;2.77;;
10904;SDS011;5505;51.450;9.254;2022-08-21T08:12:33;6.00;;;2.50;;
10904;SDS011;5505;51.450;9.254;2022-08-21T08:15:21;6.27;;;2.37;;
10904;SDS011;5505;51.450;9.254;2022-08-21T08:18:09;6.13;;;2.53;;
10904;SDS011;5505;51.450;9.254;2022-08-21T08:20:58;6.13;;;2.70;;
10904;SDS011;5505;51.450;9.254;2022-08-21T08:23:44;4.73;;;2.17;;
10904;SDS011;5505;51.450;9.254;2022-08-21T08:26:31;4.77;;;2.40;;
10904;SDS011;5505;51.450;9.254;2022-08-21T08:29:18;4.40;;;2.10;;
10904;SDS011;5505;51.450;9.254;2022-08-21T08:32:05;4.90;;;2.20;;
10904;SDS011;5505;51.450;9.254;2022-08-21T08:34:53;4.97;;;2.23;;
10904;SDS011;5505;51.450;9.254;2022-08-21T08:37:41;5.53;;;2.13;;
10904;SDS011;5505;51.450;9.254;2022-08-21T08:40:31;3.97;;;2.23;;
10904;SDS011;5505;51.450;9.254;2022-08-21T08:43:25;7.37;;;2.97;;
10904;SDS011;5505;51.450;9.254;2022-08-21T08:46:14;4.30;;;2.30;;
10904;SDS011;5505;51.450;9.254;2022-08-21T08:49:04;5.90;;;2.40;;
10904;SDS011;5505;51.450;9.254;2022-08-21T08:51:54;5.17;;;1.90;;
10904;SDS011;5505;51.450;9.254;2022-08-21T08:54:47;8.53;;;2.50;;
10904;SDS011;5505;51.450;9.254;2022-08-21T08:57:38;5.83;;;2.20;;
10904;SDS011;5505;51.450;9.254;2022-08-21T09:00:28;5.17;;;2.40;;
10904;SDS011;5505;51.450;9.254;2022-08-21T09:03:18;6.23;;;2.17;;
10904;SDS011;5505;51.450;9.254;2022-08-21T09:06:06;3.77;;;1.80;;
10904;SDS011;5505;51.450;9.254;2022-08-21T09:09:06;8.93;;;2.03;;
10904;SDS011;5505;51.450;9.254;2022-08-21T09:12:04;7.10;;;2.20;;
10904;SDS011;5505;51.450;9.254;2022-08-21T09:15:03;4.13;;;2.20;;
10904;SDS011;5505;51.450;9.254;2022-08-21T09:18:08;4.13;;;2.27;;
10904;SDS011;5505;51.450;9.254;2022-08-21T09:21:06;4.97;;;2.23;;
10904;SDS011;5505;51.450;9.254;2022-08-21T09:24:02;4.07;;;1.77;;
10904;SDS011;5505;51.450;9.254;2022-08-21T09:27:07;5.57;;;2.23;;
10904;SDS011;5505;51.450;9.254;2022-08-21T09:29:56;4.03;;;1.87;;
10904;SDS011;5505;51.450;9.254;2022-08-21T09:32:43;6.53;;;2.10;;
10904;SDS011;5505;51.450;9.254;2022-08-21T09:35:30;5.77;;;2.10;;
10904;SDS011;5505;51.450;9.254;2022-08-21T09:38:24;8.63;;;2.20;;
10904;SDS011;5505;51.450;9.254;2022-08-21T09:41:13;7.57;;;2.90;;
10904;SDS011;5505;51.450;9.254;2022-08-21T09:44:02;4.23;;;2.20;;
10904;SDS011;5505;51.450;9.254;2022-08-21T09:46:50;5.83;;;1.97;;
10904;SDS011;5505;51.450;9.254;2022-08-21T09:49:39;4.83;;;2.30;;
10904;SDS011;5505;51.450;9.254;2022-08-21T09:52:27;6.53;;;2.03;;
10904;SDS011;5505;51.450;9.254;2022-08-21T09:55:21;4.17;;;1.57;;
10904;SDS011;5505;51.450;9.254;2022-08-21T09:58:34;5.57;;;2.00;;
10904;SDS011;5505;51.450;9.254;2022-08-21T10:01:24;5.67;;;2.17;;
10904;SDS011;5505;51.450;9.254;2022-08-21T10:04:12;3.93;;;1.83;;
10904;SDS011;5505;51.450;9.254;2022-08-21T10:07:06;3.63;;;1.97;;
10904;SDS011;5505;51.450;9.254;2022-08-21T10:09:58;6.27;;;1.70;;
10904;SDS011;5505;51.450;9.254;2022-08-21T10:12:48;3.10;;;1.70;;
10904;SDS011;5505;51.450;9.254;2022-08-21T10:15:44;4.17;;;2.00;;
10904;SDS011;5505;51.450;9.254;2022-08-21T10:18:39;5.33;;;1.83;;
10904;SDS011;5505;51.450;9.254;2022-08-21T10:21:28;5.70;;;1.90;;
10904;SDS011;5505;51.450;9.254;2022-08-21T10:24:22;4.03;;;1.90;;
10904;SDS011;5505;51.450;9.254;2022-08-21T10:27:16;3.93;;;1.60;;
10904;SDS011;5505;51.450;9.254;2022-08-21T10:30:09;5.30;;;2.23;;
10904;SDS011;5505;51.450;9.254;2022-08-21T10:33:02;4.33;;;2.03;;
10904;SDS011;5505;51.450;9.254;2022-08-21T10:36:02;2.33;;;1.50;;
10904;SDS011;5505;51.450;9.254;2022-08-21T10:38:59;3.33;;;1.67;;
10904;SDS011;5505;51.450;9.254;2022-08-21T10:41:58;4.10;;;1.90;;
10904;SDS011;5505;51.450;9.254;2022-08-21T10:44:58;3.57;;;1.77;;
10904;SDS011;5505;51.450;9.254;2022-08-21T10:47:52;3.37;;;1.30;;
10904;SDS011;5505;51.450;9.254;2022-08-21T10:50:45;2.37;;;1.70;;
10904;SDS011;5505;51.450;9.254;2022-08-21T10:53:40;3.57;;;1.50;;
10904;SDS011;5505;51.450;9.254;2022-08-21T10:56:34;4.50;;;1.50;;
10904;SDS011;5505;51.450;9.254;2022-08-21T10:59:25;5.07;;;1.97;;
10904;SDS011;5505;51.450;9.254;2022-08-21T11:02:17;5.00;;;1.53;;
10904;SDS011;5505;51.450;9.254;2022-08-21T11:05:10;2.70;;;1.50;;
10904;SDS011;5505;51.450;9.254;2022-08-21T11:08:02;3.47;;;1.53;;
10904;SDS011;5505;51.450;9.254;2022-08-21T11:10:55;3.40;;;1.50;;
10904;SDS011;5505;51.450;9.254;2022-08-21T11:13:47;3.47;;;1.50;;
10904;SDS011;5505;51.450;9.254;2022-08-21T11:16:39;4.63;;;1.67;;
10904;SDS011;5505;51.450;9.254;2022-08-21T11:19:30;2.93;;;1.47;;
10904;SDS011;5505;51.450;9.254;2022-08-21T11:22:21;3.80;;;1.50;;
10904;SDS011;5505;51.450;9.254;2022-08-21T11:25:15;3.23;;;1.30;;
10904;SDS011;5505;51.450;9.254;2022-08-21T11:28:11;3.27;;;1.70;;
10904;SDS011;5505;51.450;9.254;2022-08-21T11:31:06;3.80;;;1.37;;
10904;SDS011;5505;51.450;9.254;2022-08-21T11:34:10;5.30;;;1.23;;
10904;SDS011;5505;51.450;9.254;2022-08-21T11:37:09;3.07;;;1.47;;
10904;SDS011;5505;51.450;9.254;2022-08-21T11:40:03;2.77;;;1.43;;
10904;SDS011;5505;51.450;9.254;2022-08-21T11:43:02;2.70;;;1.30;;
10904;SDS011;5505;51.450;9.254;2022-08-21T11:46:00;2.07;;;1.17;;
10904;SDS011;5505;51.450;9.254;2022-08-21T11:49:12;3.23;;;1.30;;
10904;SDS011;5505;51.450;9.254;2022-08-21T11:52:14;5.90;;;1.50;;
10904;SDS011;5505;51.450;9.254;2022-08-21T11:55:05;5.30;;;1.37;;
10904;SDS011;5505;51.450;9.254;2022-08-21T11:57:57;2.03;;;1.20;;
10904;SDS011;5505;51.450;9.254;2022-08-21T12:00:55;2.40;;;1.13;;
10904;SDS011;5505;51.450;9.254;2022-08-21T12:03:51;2.17;;;0.90;;
10904;SDS011;5505;51.450;9.254;2022-08-21T12:06:41;3.07;;;1.20;;
10904;SDS011;5505;51.450;9.254;2022-08-21T12:09:30;3.47;;;1.13;;
10904;SDS011;5505;51.450;9.254;2022-08-21T12:12:23;4.03;;;1.10;;
10904;SDS011;5505;51.450;9.254;2022-08-21T12:15:16;3.00;;;0.90;;
10904;SDS011;5505;51.450;9.254;2022-08-21T12:18:20;2.47;;;1.00;;
10904;SDS011;5505;51.450;9.254;2022-08-21T12:21:19;6.13;;;1.20;;
10904;SDS011;5505;51.450;9.254;2022-08-21T12:24:15;1.10;;;0.73;;
10904;SDS011;5505;51.450;9.254;2022-08-21T12:27:13;3.47;;;1.03;;
10904;SDS011;5505;51.450;9.254;2022-08-21T12:30:18;3.43;;;1.40;;
10904;SDS011;5505;51.450;9.254;2022-08-21T12:33:18;2.10;;;1.10;;
10904;SDS011;5505;51.450;9.254;2022-08-21T12:36:10;3.77;;;1.10;;
10904;SDS011;5505;51.450;9.254;2022-08-21T12:39:03;3.00;;;1.00;;
10904;SDS011;5505;51.450;9.254;2022-08-21T12:41:58;3.03;;;0.90;;
10904;SDS011;5505;51.450;9.254;2022-08-21T12:44:48;2.13;;;0.90;;
10904;SDS011;5505;51.450;9.254;2022-08-21T12:47:43;4.23;;;1.10;;
10904;SDS011;5505;51.450;9.254;2022-08-21T12:50:38;1.27;;;0.80;;
10904;SDS011;5505;51.450;9.254;2022-08-21T12:53:29;1.50;;;0.97;;
10904;SDS011;5505;51.450;9.254;2022-08-21T12:56:20;2.00;;;0.97;;
10904;SDS011;5505;51.450;9.254;2022-08-21T12:59:11;2.73;;;1.10;;
10904;SDS011;5505;51.450;9.254;2022-08-21T13:01:59;3.07;;;0.90;;
10904;SDS011;5505;51.450;9.254;2022-08-21T13:04:49;2.70;;;0.90;;
10904;SDS011;5505;51.450;9.254;2022-08-21T13:07:42;2.00;;;1.00;;
10904;SDS011;5505;51.450;9.254;2022-08-21T13:10:32;1.73;;;0.97;;
10904;SDS011;5505;51.450;9.254;2022-08-21T13:13:21;3.13;;;1.30;;
10904;SDS011;5505;51.450;9.254;2022-08-21T13:16:09;2.73;;;0.90;;
10904;SDS011;5505;51.450;9.254;2022-08-21T13:18:59;1.30;;;0.90;;
10904;SDS011;5505;51.450;9.254;2022-08-21T13:21:47;2.17;;;1.10;;
10904;SDS011;5505;51.450;9.254;2022-08-21T13:24:36;2.13;;;1.00;;
10904;SDS011;5505;51.450;9.254;2022-08-21T13:27:26;2.90;;;0.80;;
10904;SDS011;5505;51.450;9.254;2022-08-21T13:30:17;3.93;;;1.10;;
10904;SDS011;5505;51.450;9.254;2022-08-21T13:33:06;3.53;;;1.23;;
10904;SDS011;5505;51.450;9.254;2022-08-21T13:35:57;1.73;;;0.90;;
10904;SDS011;5505;51.450;9.254;2022-08-21T13:38:50;3.87;;;0.90;;
10904;SDS011;5505;51.450;9.254;2022-08-21T13:41:40;1.57;;;0.70;;
10904;SDS011;5505;51.450;9.254;2022-08-21T13:44:32;3.37;;;1.00;;
10904;SDS011;5505;51.450;9.254;2022-08-21T13:47:22;1.80;;;0.80;;
10904;SDS011;5505;51.450;9.254;2022-08-21T13:50:09;1.17;;;0.73;;
10904;SDS011;5505;51.450;9.254;2022-08-21T13:53:00;2.63;;;0.90;;
10904;SDS011;5505;51.450;9.254;2022-08-21T13:55:48;2.93;;;1.00;;
10904;SDS011;5505;51.450;9.254;2022-08-21T13:58:42;2.83;;;1.17;;
10904;SDS011;5505;51.450;9.254;2022-08-21T14:01:32;1.77;;;1.00;;
10904;SDS011;5505;51.450;9.254;2022-08-21T14:04:25;2.17;;;0.83;;
10904;SDS011;5505;51.450;9.254;2022-08-21T14:07:19;2.70;;;0.97;;
10904;SDS011;5505;51.450;9.254;2022-08-21T14:10:12;2.47;;;0.90;;
10904;SDS011;5505;51.450;9.254;2022-08-21T14:13:02;2.23;;;1.00;;
10904;SDS011;5505;51.450;9.254;2022-08-21T14:15:54;2.57;;;1.10;;
10904;SDS011;5505;51.450;9.254;2022-08-21T14:18:43;2.13;;;1.20;;
10904;SDS011;5505;51.450;9.254;2022-08-21T14:21:34;2.27;;;1.10;;
10904;SDS011;5505;51.450;9.254;2022-08-21T14:24:27;2.67;;;1.20;;
10904;SDS011;5505;51.450;9.254;2022-08-21T14:27:16;3.30;;;1.40;;
10904;SDS011;5505;51.450;9.254;2022-08-21T14:30:10;2.17;;;1.00;;
10904;SDS011;5505;51.450;9.254;2022-08-21T14:32:59;3.07;;;1.13;;
10904;SDS011;5505;51.450;9.254;2022-08-21T14:35:46;3.53;;;1.30;;
10904;SDS011;5505;51.450;9.254;2022-08-21T14:38:35;1.97;;;1.00;;
10904;SDS011;5505;51.450;9.254;2022-08-21T14:41:24;4.20;;;1.03;;
10904;SDS011;5505;51.450;9.254;2022-08-21T14:44:12;3.43;;;1.30;;
10904;SDS011;5505;51.450;9.254;2022-08-21T14:47:00;2.20;;;1.10;;
10904;SDS011;5505;51.450;9.254;2022-08-21T14:49:47;4.43;;;1.10;;
10904;SDS011;5505;51.450;9.254;2022-08-21T14:52:34;1.77;;;1.00;;
10904;SDS011;5505;51.450;9.254;2022-08-21T14:55:23;4.43;;;1.00;;
10904;SDS011;5505;51.450;9.254;2022-08-21T14:58:10;3.50;;;1.20;;
10904;SDS011;5505;51.450;9.254;2022-08-21T15:00:57;5.30;;;1.30;;
10904;SDS011;5505;51.450;9.254;2022-08-21T15:03:48;3.37;;;1.20;;
10904;SDS011;5505;51.450;9.254;2022-08-21T15:06:36;2.30;;;1.40;;
10904;SDS011;5505;51.450;9.254;2022-08-21T15:09:23;1.70;;;1.10;;
10904;SDS011;5505;51.450;9.254;2022-08-21T15:12:11;3.13;;;1.40;;
10904;SDS011;5505;51.450;9.254;2022-08-21T15:15:01;2.50;;;1.00;;
10904;SDS011;5505;51.450;9.254;2022-08-21T15:17:50;1.73;;;0.93;;
10904;SDS011;5505;51.450;9.254;2022-08-21T15:20:37;2.53;;;1.00;;
10904;SDS011;5505;51.450;9.254;2022-08-21T15:23:24;1.53;;;0.90;;
10904;SDS011;5505;51.450;9.254;2022-08-21T15:26:11;3.00;;;1.20;;
10904;SDS011;5505;51.450;9.254;2022-08-21T15:28:59;4.17;;;1.10;;
10904;SDS011;5505;51.450;9.254;2022-08-21T15:31:51;2.40;;;1.17;;
10904;SDS011;5505;51.450;9.254;2022-08-21T15:34:40;3.60;;;1.20;;
10904;SDS011;5505;51.450;9.254;2022-08-21T15:37:26;2.60;;;0.97;;
10904;SDS011;5505;51.450;9.254;2022-08-21T15:40:14;2.90;;;1.07;;
10904;SDS011;5505;51.450;9.254;2022-08-21T15:43:02;3.77;;;1.10;;
10904;SDS011;5505;51.450;9.254;2022-08-21T15:45:54;1.50;;;0.90;;
10904;SDS011;5505;51.450;9.254;2022-08-21T15:48:42;2.50;;;1.07;;
10904;SDS011;5505;51.450;9.254;2022-08-21T15:51:31;5.13;;;1.20;;
10904;SDS011;5505;51.450;9.254;2022-08-21T15:54:19;2.40;;;0.87;;
10904;SDS011;5505;51.450;9.254;2022-08-21T15:57:05;3.07;;;1.17;;
10904;SDS011;5505;51.450;9.254;2022-08-21T15:59:53;3.70;;;1.00;;
10904;SDS011;5505;51.450;9.254;2022-08-21T16:02:44;2.23;;;0.90;;
10904;SDS011;5505;51.450;9.254;2022-08-21T16:05:33;2.50;;;1.10;;
10904;SDS011;5505;51.450;9.254;2022-08-21T16:08:20;1.97;;;0.80;;
10904;SDS011;5505;51.450;9.254;2022-08-21T16:11:07;2.23;;;1.13;;
10904;SDS011;5505;51.450;9.254;2022-08-21T16:13:53;3.77;;;0.93;;
10904;SDS011;5505;51.450;9.254;2022-08-21T16:16:41;2.37;;;0.90;;
10904;SDS011;5505;51.450;9.254;2022-08-21T16:19:36;3.90;;;1.10;;
10904;SDS011;5505;51.450;9.254;2022-08-21T16:22:34;2.93;;;1.03;;
10904;SDS011;5505;51.450;9.254;2022-08-21T16:25:26;4.03;;;1.10;;
10904;SDS011;5505;51.450;9.254;2022-08-21T16:28:14;2.73;;;1.10;;
10904;SDS011;5505;51.450;9.254;2022-08-21T16:31:03;1.20;;;0.83;;
10904;SDS011;5505;51.450;9.254;2022-08-21T16:33:52;4.10;;;0.97;;
10904;SDS011;5505;51.450;9.254;2022-08-21T16:36:42;3.37;;;1.10;;
10904;SDS011;5505;51.450;9.254;2022-08-21T16:39:30;4.20;;;1.20;;
10904;SDS011;5505;51.450;9.254;2022-08-21T16:42:17;2.87;;;1.10;;
10904;SDS011;5505;51.450;9.254;2022-08-21T16:45:08;2.90;;;1.07;;
10904;SDS011;5505;51.450;9.254;2022-08-21T16:47:56;1.43;;;0.83;;
10904;SDS011;5505;51.450;9.254;2022-08-21T16:50:43;3.87;;;1.10;;
10904;SDS011;5505;51.450;9.254;2022-08-21T16:53:31;1.87;;;0.90;;
10904;SDS011;5505;51.450;9.254;2022-08-21T16:56:18;2.93;;;0.90;;
10904;SDS011;5505;51.450;9.254;2022-08-21T16:59:05;2.00;;;1.17;;
10904;SDS011;5505;51.450;9.254;2022-08-21T17:01:52;2.43;;;1.07;;
10904;SDS011;5505;51.450;9.254;2022-08-21T17:04:39;1.73;;;1.03;;
10904;SDS011;5505;51.450;9.254;2022-08-21T17:07:26;4.03;;;1.10;;
10904;SDS011;5505;51.450;9.254;2022-08-21T17:10:15;2.23;;;1.10;;
10904;SDS011;5505;51.450;9.254;2022-08-21T17:13:03;2.27;;;1.10;;
10904;SDS011;5505;51.450;9.254;2022-08-21T17:15:50;2.33;;;1.20;;